Time;durP1;ratioP1;P1;durP2;ratioP2;P2;SDS_P1;SDS_P2;PMS_P1;PMS_P2;Temp;Humidity;BMP_temperature;BMP_pressure;BME280_temperature;BME280_humidity;BME280_pressure;Samples;Min_cycle;Max_cycle;Signal;HPM_P1;HPM_P2
2023/02/02 00:02:30;;;;;;;21.65;2.42;;;6.80;83.80;;;;;;9181722;19;20011;-64
2023/02/02 00:05:34;;;;;;;9.93;1.60;;;6.80;83.80;;;;;;9180663;19;20074;-63
2023/02/02 00:08:40;;;;;;;13.88;2.45;;;6.80;83.80;;;;;;9180662;19;20022;-65
2023/02/02 00:11:46;;;;;;;;;;;6.70;83.70;;;;;;9173957;19;20380;-64
2023/02/02 00:14:52;;;;;;;13.02;2.10;;;6.70;83.70;;;;;;9180982;19;19918;-64
2023/02/02 00:17:56;;;;;;;16.13;1.85;;;6.70;83.80;;;;;;9179543;19;20015;-63
2023/02/02 00:21:02;;;;;;;11.98;2.28;;;6.70;83.70;;;;;;9178987;19;20019;-63
2023/02/02 00:24:06;;;;;;;;;;;6.70;83.80;;;;;;9180545;19;20471;-63
2023/02/02 00:27:14;;;;;;;10.88;2.22;;;6.70;83.80;;;;;;9181088;19;19915;-63
2023/02/02 00:30:19;;;;;;;9.88;2.15;;;6.70;83.80;;;;;;9180099;19;20102;-64
2023/02/02 00:33:25;;;;;;;15.95;2.00;;;6.70;83.80;;;;;;9177143;19;20014;-65
2023/02/02 00:36:28;;;;;;;;;;;6.70;83.80;;;;;;9180545;19;20045;-64
2023/02/02 00:39:34;;;;;;;18.55;2.17;;;6.70;83.90;;;;;;9179374;19;20347;-61
2023/02/02 00:42:40;;;;;;;19.05;2.17;;;6.70;83.80;;;;;;9179591;19;20364;-62
2023/02/02 00:45:46;;;;;;;12.88;1.95;;;6.70;83.80;;;;;;9179322;19;20463;-66
2023/02/02 00:48:49;;;;;;;;;;;6.70;83.90;;;;;;9180344;19;20018;-63
2023/02/02 00:51:55;;;;;;;19.50;2.72;;;6.70;83.90;;;;;;9178838;19;19915;-64
2023/02/02 00:54:59;;;;;;;;;;;6.70;83.80;;;;;;9180012;19;20474;-65
2023/02/02 00:58:07;;;;;;;12.27;2.03;;;6.70;83.90;;;;;;9179403;19;19970;-63
2023/02/02 01:01:16;;;;;;;21.20;2.95;;;6.70;83.90;;;;;;9177583;19;20625;-62
2023/02/02 01:04:24;;;;;;;27.50;3.30;;;6.70;84.00;;;;;;9178422;19;20019;-65
2023/02/02 01:07:28;;;;;;;19.50;2.47;;;6.70;84.00;;;;;;9178941;19;20014;-62
2023/02/02 01:10:35;;;;;;;15.10;2.47;;;6.70;84.10;;;;;;9172975;19;20014;-62
2023/02/02 01:13:42;;;;;;;19.85;4.10;;;6.70;84.10;;;;;;9176195;19;20027;-64
2023/02/02 01:16:48;;;;;;;19.90;2.92;;;6.70;84.20;;;;;;9178254;19;20014;-62
2023/02/02 01:19:52;;;;;;;20.42;3.65;;;6.80;84.30;;;;;;9175942;19;20014;-62
2023/02/02 01:22:58;;;;;;;23.50;2.42;;;6.70;84.20;;;;;;9176647;19;20017;-64
2023/02/02 01:26:04;;;;;;;24.35;3.55;;;6.80;84.30;;;;;;9178255;19;20022;-64
2023/02/02 01:29:14;;;;;;;25.45;3.13;;;6.80;84.30;;;;;;9177134;19;20018;-64
2023/02/02 01:32:18;;;;;;;21.38;3.00;;;6.80;84.40;;;;;;9177459;19;20014;-63
2023/02/02 01:35:24;;;;;;;17.45;2.60;;;6.90;84.40;;;;;;9175938;19;20467;-64
2023/02/02 01:38:29;;;;;;;18.63;2.53;;;6.90;84.40;;;;;;9177332;19;20372;-64
2023/02/02 01:41:35;;;;;;;22.15;2.65;;;6.90;84.50;;;;;;9177483;19;20029;-63
2023/02/02 01:44:53;;;;;;;;;;;6.90;84.50;;;;;;9178380;19;20019;-65
2023/02/02 01:48:01;;;;;;;25.92;2.97;;;6.90;84.50;;;;;;9175432;19;19914;-64
2023/02/02 01:51:09;;;;;;;26.73;3.70;;;7.00;84.40;;;;;;9177253;19;20014;-64
2023/02/02 01:54:19;;;;;;;20.08;2.90;;;7.00;84.50;;;;;;9174248;19;20015;-64
2023/02/02 01:57:29;;;;;;;17.42;2.85;;;7.00;84.60;;;;;;9177472;19;20040;-63
2023/02/02 02:00:35;;;;;;;24.20;4.03;;;7.00;84.60;;;;;;9177173;19;20462;-63
2023/02/02 02:03:40;;;;;;;;;;;7.10;84.60;;;;;;9178051;19;20026;-62
2023/02/02 02:06:47;;;;;;;17.83;3.15;;;7.10;84.70;;;;;;9176471;19;19927;-63
2023/02/02 02:09:51;;;;;;;24.20;4.80;;;7.10;84.50;;;;;;9173988;19;20049;-65
2023/02/02 02:12:57;;;;;;;21.63;4.40;;;7.10;84.60;;;;;;9174865;19;20014;-64
2023/02/02 02:16:19;;;;;;;14.18;2.53;;;7.10;84.60;;;;;;9176671;19;20051;-65
2023/02/02 02:27:27;;;;;;;21.92;3.72;;;7.20;84.80;;;;;;9173448;19;20010;-65
2023/02/02 02:30:42;;;;;;;16.75;3.00;;;7.20;84.70;;;;;;9173458;19;20006;-62
2023/02/02 02:33:58;;;;;;;33.25;2.90;;;7.20;84.80;;;;;;9172678;19;20566;-64
2023/02/02 02:37:11;;;;;;;33.13;3.40;;;7.20;84.80;;;;;;9173661;19;20010;-66
2023/02/02 02:40:24;;;;;;;19.48;3.17;;;7.30;84.90;;;;;;9173428;19;20014;-62
2023/02/02 02:43:32;;;;;;;23.05;3.45;;;7.30;86.60;;;;;;9173294;19;20014;-65
2023/02/02 02:46:39;;;;;;;16.63;2.90;;;7.30;84.90;;;;;;9174896;19;20074;-63
2023/02/02 02:49:46;;;;;;;21.02;2.92;;;7.30;84.80;;;;;;9175181;19;20044;-63
2023/02/02 02:53:01;;;;;;;29.23;3.15;;;7.30;84.90;;;;;;9171198;19;20484;-64
2023/02/02 02:56:15;;;;;;;17.40;2.80;;;7.40;84.90;;;;;;9173067;19;20349;-64
2023/02/02 02:59:32;;;;;;;32.55;3.95;;;7.40;84.90;;;;;;9177387;19;20029;-63
2023/02/02 03:02:43;;;;;;;19.65;3.08;;;7.40;84.90;;;;;;9183505;19;20082;-64
2023/02/02 03:05:56;;;;;;;21.13;2.78;;;7.40;84.90;;;;;;9184115;19;20062;-65
2023/02/02 03:09:05;;;;;;;22.05;3.67;;;7.40;84.90;;;;;;9183651;19;20018;-64
2023/02/02 03:12:11;;;;;;;20.52;3.13;;;7.50;85.00;;;;;;9176063;19;20015;-63
2023/02/02 03:15:16;;;;;;;19.15;2.85;;;7.50;85.00;;;;;;9182481;19;20124;-63
2023/02/02 03:18:26;;;;;;;20.17;2.85;;;7.50;85.00;;;;;;9182111;19;20019;-62
2023/02/02 03:21:32;;;;;;;16.55;2.75;;;7.50;85.00;;;;;;9182395;19;20100;-65
2023/02/02 03:24:37;;;;;;;21.65;3.42;;;7.50;85.00;;;;;;9182093;19;20011;-64
2023/02/02 03:27:41;;;;;;;23.00;2.47;;;7.50;85.00;;;;;;9182668;19;20010;-64
2023/02/02 03:30:49;;;;;;;24.08;3.25;;;7.50;85.00;;;;;;9181606;19;20490;-65
2023/02/02 03:33:53;;;;;;;13.95;2.70;;;7.60;85.10;;;;;;9179837;19;20363;-63
2023/02/02 03:37:00;;;;;;;14.80;2.70;;;7.60;85.00;;;;;;9182131;19;20025;-65
2023/02/02 03:40:06;;;;;;;21.25;3.13;;;7.60;85.00;;;;;;9180146;19;20023;-63
2023/02/02 03:43:11;;;;;;;24.13;2.75;;;7.60;85.00;;;;;;9181603;19;20467;-63
2023/02/02 03:46:15;;;;;;;20.15;3.60;;;7.60;85.00;;;;;;9181227;19;20002;-63
2023/02/02 03:49:22;;;;;;;11.73;2.63;;;7.60;85.00;;;;;;9179926;19;20418;-63
2023/02/02 03:52:28;;;;;;;24.90;2.80;;;7.60;85.00;;;;;;9179170;19;20024;-63
2023/02/02 03:55:33;;;;;;;19.20;2.97;;;7.60;85.10;;;;;;9181106;19;20018;-63
2023/02/02 03:58:37;;;;;;;;;;;7.70;85.10;;;;;;9181008;19;20014;-64
2023/02/02 04:01:43;;;;;;;16.50;2.60;;;7.70;85.10;;;;;;9180977;19;19930;-63
2023/02/02 04:04:47;;;;;;;20.90;2.83;;;7.70;85.00;;;;;;9179294;19;20022;-63
2023/02/02 04:07:55;;;;;;;21.90;2.67;;;7.70;85.00;;;;;;9180372;19;20686;-64
2023/02/02 04:10:59;;;;;;;16.98;3.58;;;7.70;85.50;;;;;;9174216;19;20036;-65
2023/02/02 04:14:05;;;;;;;19.50;2.25;;;7.70;85.10;;;;;;9178377;19;20030;-63
2023/02/02 04:17:10;;;;;;;20.77;3.42;;;7.70;85.10;;;;;;9180191;19;20058;-63
2023/02/02 04:20:16;;;;;;;16.75;3.20;;;7.70;85.10;;;;;;9177670;19;20014;-62
2023/02/02 04:23:21;;;;;;;9.52;2.65;;;7.70;85.20;;;;;;9180655;19;20028;-66
2023/02/02 04:26:28;;;;;;;13.77;3.05;;;7.70;85.20;;;;;;9180237;19;20014;-62
2023/02/02 04:29:32;;;;;;;10.55;3.13;;;7.70;85.20;;;;;;9180306;19;20015;-64
2023/02/02 04:32:38;;;;;;;11.60;2.35;;;7.70;85.20;;;;;;9179658;19;20017;-63
2023/02/02 04:35:43;;;;;;;11.18;2.40;;;7.70;85.20;;;;;;9180487;19;20070;-62
2023/02/02 04:38:53;;;;;;;19.85;2.85;;;7.70;85.20;;;;;;9179776;19;20038;-62
2023/02/02 04:41:57;;;;;;;14.57;2.92;;;7.80;85.30;;;;;;9179995;19;20036;-64
2023/02/02 04:45:03;;;;;;;7.82;2.40;;;7.80;85.30;;;;;;9180327;19;20505;-64
2023/02/02 04:48:07;;;;;;;10.70;1.90;;;7.80;85.30;;;;;;9178837;19;20022;-63
2023/02/02 04:51:15;;;;;;;8.77;2.78;;;7.80;85.40;;;;;;9179409;19;20364;-63
2023/02/02 04:54:21;;;;;;;12.88;1.90;;;7.80;85.40;;;;;;9176306;19;20363;-63
2023/02/02 04:57:27;;;;;;;5.82;1.75;;;7.80;85.40;;;;;;9178878;19;20034;-63
2023/02/02 05:00:31;;;;;;;9.60;1.95;;;7.80;85.40;;;;;;9179855;19;20014;-64
2023/02/02 05:03:36;;;;;;;6.35;1.70;;;7.80;85.40;;;;;;9179204;19;20003;-64
2023/02/02 05:06:40;;;;;;;;;;;7.80;85.40;;;;;;9180140;19;20030;-62
2023/02/02 05:09:48;;;;;;;3.70;1.50;;;7.80;85.50;;;;;;9178145;19;19941;-63
2023/02/02 05:12:54;;;;;;;4.28;1.35;;;7.80;85.40;;;;;;9176021;19;20022;-62
2023/02/02 05:15:59;;;;;;;4.65;1.48;;;7.80;85.40;;;;;;9175684;19;20007;-63
2023/02/02 05:19:04;;;;;;;6.03;1.10;;;7.80;85.50;;;;;;9176164;19;20021;-63
2023/02/02 05:22:10;;;;;;;5.55;1.90;;;7.80;85.50;;;;;;9175426;19;20018;-63
2023/02/02 05:25:16;;;;;;;5.03;1.17;;;7.80;85.60;;;;;;9177511;19;20018;-65
2023/02/02 05:28:24;;;;;;;2.35;0.90;;;7.80;85.50;;;;;;9178328;19;20020;-63
2023/02/02 05:31:29;;;;;;;2.90;1.13;;;7.80;85.60;;;;;;9175735;19;20025;-67
2023/02/02 05:34:35;;;;;;;3.60;1.15;;;7.80;85.60;;;;;;9175244;19;20014;-64
2023/02/02 05:37:39;;;;;;;3.05;1.00;;;7.80;85.60;;;;;;9177295;19;20025;-65
2023/02/02 05:40:49;;;;;;;3.25;1.20;;;7.80;85.60;;;;;;9177403;19;20029;-64
2023/02/02 05:43:54;;;;;;;3.70;1.25;;;7.80;85.70;;;;;;9177136;19;20014;-64
2023/02/02 05:46:59;;;;;;;5.78;1.30;;;7.80;86.30;;;;;;9177266;19;20021;-65
2023/02/02 05:50:03;;;;;;;2.97;1.35;;;7.80;85.70;;;;;;9177546;19;20014;-64
2023/02/02 05:53:10;;;;;;;2.70;1.30;;;7.80;85.70;;;;;;9176497;19;20086;-63
2023/02/02 05:56:16;;;;;;;2.20;1.20;;;7.80;85.80;;;;;;9176717;19;20029;-63
2023/02/02 05:59:23;;;;;;;1.95;1.30;;;7.80;85.70;;;;;;9176848;19;20026;-64
2023/02/02 06:02:26;;;;;;;4.25;1.13;;;7.80;85.80;;;;;;9176621;19;20023;-67
2023/02/02 06:05:32;;;;;;;5.32;1.60;;;7.90;85.80;;;;;;9177580;19;20015;-66
2023/02/02 06:08:37;;;;;;;6.93;1.73;;;7.80;85.80;;;;;;9177032;19;20010;-65
2023/02/02 06:11:46;;;;;;;3.85;1.25;;;7.90;85.90;;;;;;9169897;19;20014;-63
2023/02/02 06:14:50;;;;;;;2.08;1.10;;;7.90;85.90;;;;;;9172900;19;20014;-64
2023/02/02 06:17:57;;;;;;;2.72;1.65;;;7.90;85.90;;;;;;9175556;19;20017;-63
2023/02/02 06:21:02;;;;;;;3.97;1.77;;;7.90;85.90;;;;;;9176431;19;20026;-63
2023/02/02 06:24:08;;;;;;;2.40;1.02;;;7.90;85.90;;;;;;9175465;19;20018;-63
2023/02/02 06:27:14;;;;;;;3.08;0.93;;;7.90;85.90;;;;;;9175568;19;20021;-63
2023/02/02 06:30:20;;;;;;;3.25;1.15;;;7.90;86.00;;;;;;9175526;19;20019;-65
2023/02/02 06:33:24;;;;;;;2.20;1.00;;;7.90;86.00;;;;;;9177027;19;20015;-63
2023/02/02 06:36:30;;;;;;;4.35;1.10;;;7.90;86.00;;;;;;9183970;19;20022;-63
2023/02/02 06:39:33;;;;;;;;;;;7.90;86.00;;;;;;9184945;19;20074;-63
2023/02/02 06:42:41;;;;;;;0.80;0.73;;;7.90;86.00;;;;;;9182578;19;19933;-63
2023/02/02 06:45:45;;;;;;;1.73;1.20;;;7.90;86.00;;;;;;9183534;19;20471;-64
2023/02/02 06:48:51;;;;;;;0.85;0.73;;;7.90;86.00;;;;;;9183469;19;20497;-64
2023/02/02 06:51:54;;;;;;;;;;;7.90;86.00;;;;;;9184492;19;20352;-64
2023/02/02 06:55:00;;;;;;;1.70;0.90;;;7.90;86.00;;;;;;9180655;19;19923;-65
2023/02/02 06:58:06;;;;;;;;;;;7.80;85.90;;;;;;9183906;19;20043;-64
2023/02/02 07:01:13;;;;;;;4.60;1.85;;;7.80;85.90;;;;;;9178404;19;19930;-63
2023/02/02 07:04:18;;;;;;;2.50;1.55;;;7.90;85.90;;;;;;9182384;19;20368;-64
2023/02/02 07:07:24;;;;;;;2.65;1.33;;;7.80;85.90;;;;;;9180001;19;20007;-64
2023/02/02 07:10:27;;;;;;;2.80;1.00;;;7.80;86.00;;;;;;9176291;19;20483;-63
2023/02/02 07:13:55;;;;;;;1.40;1.20;;;7.80;86.00;;;;;;9170919;19;20025;-66
2023/02/02 07:16:59;;;;;;;2.05;1.38;;;7.80;86.00;;;;;;9176306;19;20018;-64
2023/02/02 07:20:06;;;;;;;1.70;1.10;;;7.80;86.10;;;;;;9173579;19;20018;-66
2023/02/02 07:23:10;;;;;;;1.80;1.10;;;7.90;86.10;;;;;;9170435;19;20546;-65
2023/02/02 07:26:17;;;;;;;1.35;0.98;;;7.80;86.10;;;;;;9173210;19;20013;-64
2023/02/02 07:29:23;;;;;;;3.35;1.02;;;7.80;86.10;;;;;;9170607;19;20336;-65
2023/02/02 07:32:29;;;;;;;2.22;0.90;;;7.90;86.20;;;;;;9173370;19;20018;-63
2023/02/02 07:35:32;;;;;;;;;;;7.90;86.20;;;;;;9172253;19;20029;-66
2023/02/02 07:38:38;;;;;;;1.40;1.20;;;7.80;86.10;;;;;;9175581;19;20328;-64
2023/02/02 07:41:43;;;;;;;1.40;1.30;;;7.90;86.10;;;;;;9172268;19;20018;-65
2023/02/02 07:45:05;;;;;;;4.13;1.70;;;7.90;86.10;;;;;;9178797;19;20017;-63
2023/02/02 07:48:28;;;;;;;5.22;2.88;;;7.90;86.10;;;;;;9175532;19;20018;-63
2023/02/02 07:51:34;;;;;;;3.83;2.03;;;7.80;86.10;;;;;;9176496;19;20455;-64
2023/02/02 07:54:41;;;;;;;4.28;1.60;;;7.80;86.10;;;;;;9173611;19;20018;-66
2023/02/02 07:57:47;;;;;;;9.35;2.10;;;7.90;86.20;;;;;;9176062;19;20014;-64
2023/02/02 08:00:52;;;;;;;;;;;7.80;86.20;;;;;;9177021;19;20014;-69
2023/02/02 08:04:00;;;;;;;3.00;1.80;;;7.80;86.90;;;;;;9171000;19;20336;-67
2023/02/02 08:07:04;;;;;;;6.63;2.08;;;7.90;86.10;;;;;;9180165;19;20018;-64
2023/02/02 08:10:11;;;;;;;5.82;1.80;;;7.90;86.20;;;;;;9171477;19;20019;-67
2023/02/02 08:13:15;;;;;;;2.70;1.70;;;7.90;86.20;;;;;;9172787;19;20014;-66
2023/02/02 08:16:24;;;;;;;6.40;1.92;;;7.80;86.20;;;;;;9172016;19;20011;-65
2023/02/02 08:19:28;;;;;;;2.92;1.65;;;7.80;86.20;;;;;;9175701;19;20030;-64
2023/02/02 08:22:33;;;;;;;4.07;1.70;;;7.80;86.20;;;;;;9179927;19;20018;-67
2023/02/02 08:25:37;;;;;;;;;;;7.80;86.20;;;;;;9177305;19;20575;-66
2023/02/02 08:28:44;;;;;;;2.63;1.88;;;7.90;86.30;;;;;;9177199;19;19911;-66
2023/02/02 08:31:50;;;;;;;4.30;2.10;;;7.80;86.10;;;;;;9179240;19;20479;-67
2023/02/02 08:34:56;;;;;;;4.32;1.83;;;7.90;86.30;;;;;;9172101;19;20015;-67
2023/02/02 08:38:01;;;;;;;6.00;1.95;;;7.90;86.30;;;;;;9175203;19;20022;-66
2023/02/02 08:41:08;;;;;;;3.28;1.90;;;7.80;86.30;;;;;;9180164;19;20025;-65
2023/02/02 08:44:16;;;;;;;6.45;1.42;;;7.90;86.40;;;;;;9172421;19;20029;-67
2023/02/02 08:47:24;;;;;;;4.15;1.30;;;7.80;86.30;;;;;;9178836;19;20471;-65
2023/02/02 08:50:28;;;;;;;3.00;1.35;;;7.90;86.30;;;;;;9173611;19;20019;-65
2023/02/02 08:53:34;;;;;;;4.25;1.42;;;7.80;86.30;;;;;;9173810;19;20029;-67
2023/02/02 08:56:38;;;;;;;3.53;1.20;;;7.90;86.30;;;;;;9173945;19;20018;-68
2023/02/02 08:59:44;;;;;;;5.05;1.40;;;7.80;86.20;;;;;;9171403;19;20018;-68
2023/02/02 09:02:52;;;;;;;;;;;7.80;86.20;;;;;;9170864;19;20014;-66
2023/02/02 09:05:58;;;;;;;2.47;0.95;;;7.80;86.20;;;;;;9173463;19;19942;-66
2023/02/02 09:09:02;;;;;;;;;;;7.80;86.10;;;;;;9175408;19;20018;-65
2023/02/02 09:12:08;;;;;;;2.33;1.00;;;7.80;86.20;;;;;;9166810;19;19915;-69
2023/02/02 09:15:12;;;;;;;5.05;1.48;;;7.80;86.10;;;;;;9168729;19;20030;-64
2023/02/02 09:18:20;;;;;;;7.80;1.25;;;7.80;86.10;;;;;;9171468;19;20021;-66
2023/02/02 09:21:24;;;;;;;2.55;1.10;;;7.70;86.20;;;;;;9175646;19;20018;-66
2023/02/02 09:24:30;;;;;;;5.60;1.52;;;7.70;86.20;;;;;;9177070;19;20018;-67
2023/02/02 09:27:39;;;;;;;5.00;1.70;;;7.70;86.30;;;;;;9169706;19;20098;-64
2023/02/02 09:30:45;;;;;;;3.72;1.40;;;7.70;86.20;;;;;;9174300;19;20022;-66
2023/02/02 09:33:51;;;;;;;;;;;7.70;86.30;;;;;;9173276;19;20066;-66
2023/02/02 09:36:57;;;;;;;3.58;1.63;;;7.70;86.30;;;;;;9167409;19;19922;-66
2023/02/02 09:40:00;;;;;;;;;;;7.70;86.20;;;;;;9172112;19;20516;-67
2023/02/02 09:43:14;;;;;;;3.38;2.08;;;7.70;86.20;;;;;;9168085;19;19922;-63
2023/02/02 09:46:28;;;;;;;6.63;2.13;;;7.70;86.20;;;;;;9171017;19;20010;-64
2023/02/02 09:49:41;;;;;;;7.95;1.90;;;7.70;86.30;;;;;;9170809;19;20007;-66
2023/02/02 09:52:50;;;;;;;6.85;4.50;;;7.80;86.40;;;;;;9170770;19;20078;-61
2023/02/02 09:55:59;;;;;;;6.82;4.47;;;7.80;86.40;;;;;;9166989;19;20023;-63
2023/02/02 09:59:06;;;;;;;12.05;3.78;;;7.80;86.40;;;;;;9176126;19;20033;-64
2023/02/02 10:02:29;;;;;;;4.90;2.33;;;7.80;86.40;;;;;;9173074;19;20017;-63
2023/02/02 10:05:46;;;;;;;8.65;2.63;;;7.80;86.50;;;;;;9170266;19;20384;-66
2023/02/02 10:08:56;;;;;;;7.45;2.25;;;7.70;86.40;;;;;;9180642;19;20475;-61
2023/02/02 10:12:05;;;;;;;3.20;2.17;;;7.70;86.40;;;;;;9172073;19;20022;-64
2023/02/02 10:15:21;;;;;;;5.97;2.13;;;7.80;86.50;;;;;;9182783;19;20013;-66
2023/02/02 10:18:34;;;;;;;5.40;2.35;;;7.80;86.50;;;;;;9179874;19;20019;-64
2023/02/02 10:21:47;;;;;;;8.90;2.40;;;7.80;86.50;;;;;;9179504;19;20022;-63
2023/02/02 10:24:52;;;;;;;10.95;3.30;;;7.80;86.60;;;;;;9178138;19;20393;-62
2023/02/02 10:28:04;;;;;;;7.38;2.88;;;7.80;86.60;;;;;;9180651;19;20423;-63
2023/02/02 10:31:18;;;;;;;7.60;2.78;;;7.80;86.60;;;;;;9182968;19;20014;-63
2023/02/02 10:34:29;;;;;;;4.28;2.45;;;7.80;86.70;;;;;;9180822;19;20467;-62
2023/02/02 10:37:39;;;;;;;11.43;3.58;;;7.80;86.70;;;;;;9179712;19;20015;-63
2023/02/02 10:40:55;;;;;;;10.68;3.58;;;7.80;87.40;;;;;;9176882;19;20014;-64
2023/02/02 10:44:14;;;;;;;12.35;3.40;;;7.90;86.90;;;;;;9180129;19;20574;-63
2023/02/02 10:47:26;;;;;;;8.57;2.88;;;7.90;86.90;;;;;;9178935;19;20010;-63
2023/02/02 10:50:30;;;;;;;9.43;3.63;;;7.90;86.90;;;;;;9182721;19;20010;-63
2023/02/02 10:53:38;;;;;;;16.73;4.63;;;8.00;86.90;;;;;;9179691;19;20014;-65
2023/02/02 10:56:47;;;;;;;12.93;4.22;;;8.00;87.00;;;;;;9180882;19;20345;-65
2023/02/02 11:00:04;;;;;;;17.92;3.72;;;8.00;86.90;;;;;;9182319;19;20033;-62
2023/02/02 11:03:11;;;;;;;27.92;4.72;;;8.10;87.10;;;;;;9181992;19;20030;-65
2023/02/02 11:09:40;;;;;;;16.77;4.15;;;8.10;87.10;;;;;;9182749;19;20010;-64
2023/02/02 11:12:51;;;;;;;11.85;3.67;;;8.20;87.20;;;;;;9172840;19;20119;-64
2023/02/02 11:16:20;;;;;;;11.07;3.80;;;8.20;87.20;;;;;;9179628;19;20034;-63
2023/02/02 11:19:30;;;;;;;6.95;3.72;;;8.20;87.30;;;;;;9178724;19;20024;-63
2023/02/02 11:22:37;;;;;;;11.57;3.63;;;8.30;87.30;;;;;;9183201;19;20018;-62
2023/02/02 11:25:45;;;;;;;6.57;3.22;;;8.30;87.20;;;;;;9175464;19;20010;-65
2023/02/02 11:28:51;;;;;;;7.97;3.80;;;8.30;87.30;;;;;;9175100;19;20018;-63
2023/02/02 11:31:57;;;;;;;15.00;4.00;;;8.30;87.30;;;;;;9174787;19;20006;-64
2023/02/02 11:35:17;;;;;;;16.02;4.97;;;8.30;87.20;;;;;;9175488;19;20106;-63
2023/02/02 11:38:24;;;;;;;9.32;3.47;;;8.30;87.30;;;;;;9180667;19;20018;-61
2023/02/02 11:41:32;;;;;;;11.07;3.72;;;8.40;87.30;;;;;;9176244;19;20034;-66
2023/02/02 11:44:40;;;;;;;12.32;3.55;;;8.40;87.30;;;;;;9175478;19;20011;-68
2023/02/02 11:47:45;;;;;;;10.13;3.97;;;8.40;87.20;;;;;;9179231;19;20022;-64
2023/02/02 11:50:53;;;;;;;18.60;4.75;;;8.50;87.40;;;;;;9175587;19;20025;-65
2023/02/02 11:54:05;;;;;;;13.02;3.72;;;8.50;87.30;;;;;;9176303;19;20025;-65
2023/02/02 11:57:19;;;;;;;21.55;3.92;;;8.50;87.40;;;;;;9182026;19;20022;-62
2023/02/02 12:00:25;;;;;;;19.77;3.60;;;8.50;87.40;;;;;;9180997;19;20010;-62
2023/02/02 12:03:35;;;;;;;16.15;3.40;;;8.50;87.40;;;;;;9181113;19;20011;-62
2023/02/02 12:06:40;;;;;;;18.98;3.55;;;8.50;87.40;;;;;;9169829;19;20030;-65
2023/02/02 12:09:46;;;;;;;10.18;4.07;;;8.50;87.50;;;;;;9166825;19;20022;-63
2023/02/02 12:13:01;;;;;;;10.80;2.97;;;8.60;87.60;;;;;;9168891;19;20015;-66
2023/02/02 12:16:20;;;;;;;15.88;3.25;;;8.60;87.60;;;;;;9165969;19;20336;-64
2023/02/02 12:19:51;;;;;;;17.20;3.15;;;8.60;87.60;;;;;;9170932;19;20014;-64
2023/02/02 12:23:23;;;;;;;11.35;3.13;;;8.60;87.70;;;;;;9167970;19;20018;-68
2023/02/02 12:26:32;;;;;;;16.15;3.97;;;8.60;87.70;;;;;;9169110;19;20050;-65
2023/02/02 12:29:56;;;;;;;14.23;3.72;;;8.70;87.70;;;;;;9173856;19;20683;-65
2023/02/02 12:33:24;;;;;;;11.48;3.35;;;8.70;87.80;;;;;;9169778;19;20018;-65
2023/02/02 12:36:43;;;;;;;9.75;3.50;;;8.70;87.80;;;;;;9167305;19;20022;-66
2023/02/02 12:40:02;;;;;;;9.57;3.65;;;8.80;87.90;;;;;;9167950;19;20026;-65
2023/02/02 12:43:24;;;;;;;12.20;3.10;;;8.80;87.80;;;;;;9172457;19;20363;-66
2023/02/02 12:46:46;;;;;;;10.93;3.40;;;8.90;87.90;;;;;;9167298;19;20038;-64
2023/02/02 12:50:01;;;;;;;;;;;8.90;87.90;;;;;;9172718;19;20017;-64
2023/02/02 12:53:25;;;;;;;17.35;3.47;;;8.90;87.80;;;;;;9171136;19;19929;-62
2023/02/02 12:56:37;;;;;;;18.10;3.83;;;8.90;88.40;;;;;;9166135;19;20021;-67
2023/02/02 13:00:04;;;;;;;12.65;3.58;;;8.90;87.80;;;;;;9175467;19;20046;-62
2023/02/02 13:03:28;;;;;;;17.42;3.92;;;8.90;87.90;;;;;;9170544;19;20010;-64
2023/02/02 13:07:04;;;;;;;25.48;5.20;;;8.90;87.90;;;;;;9169138;19;20033;-63
2023/02/02 13:10:18;;;;;;;17.23;3.90;;;9.00;88.10;;;;;;9170290;19;20029;-64
2023/02/02 13:13:27;;;;;;;14.95;4.38;;;9.00;87.90;;;;;;9171011;19;20042;-63
2023/02/02 13:16:36;;;;;;;23.52;4.10;;;9.10;88.00;;;;;;9164675;19;20522;-63
2023/02/02 13:19:46;;;;;;;20.05;4.82;;;9.00;88.00;;;;;;9170344;19;20778;-64
2023/02/02 13:22:57;;;;;;;19.02;4.15;;;9.10;88.10;;;;;;9171053;19;20021;-66
2023/02/02 13:26:04;;;;;;;15.90;4.75;;;9.10;88.00;;;;;;9170717;19;20475;-66
2023/02/02 13:29:25;;;;;;;14.90;4.25;;;9.10;88.10;;;;;;9168405;19;20025;-65
2023/02/02 13:32:34;;;;;;;19.40;4.30;;;9.10;88.10;;;;;;9171079;19;20019;-63
2023/02/02 13:35:50;;;;;;;14.32;4.85;;;9.10;88.10;;;;;;9164796;19;20086;-64
2023/02/02 13:38:57;;;;;;;24.65;4.90;;;9.10;88.10;;;;;;9167553;19;20045;-64
2023/02/02 13:42:15;;;;;;;23.92;5.35;;;9.20;88.10;;;;;;9167626;19;20014;-66
2023/02/02 13:45:39;;;;;;;24.33;5.15;;;9.20;88.10;;;;;;9172456;19;20049;-64
2023/02/02 13:48:54;;;;;;;17.40;4.30;;;9.20;88.20;;;;;;9166744;19;20360;-63
2023/02/02 13:52:18;;;;;;;26.50;5.20;;;9.20;88.10;;;;;;9169691;19;20010;-65
2023/02/02 13:55:44;;;;;;;20.58;4.70;;;9.20;88.20;;;;;;9163362;19;20022;-65
2023/02/02 13:59:13;;;;;;;22.65;4.28;;;9.20;88.10;;;;;;9171093;19;20029;-64
2023/02/02 14:02:24;;;;;;;11.32;4.65;;;9.20;88.10;;;;;;9171418;19;20018;-64
2023/02/02 14:05:31;;;;;;;20.40;4.32;;;9.20;88.10;;;;;;9165101;19;20025;-65
2023/02/02 14:08:44;;;;;;;25.23;4.03;;;9.20;88.10;;;;;;9165900;19;20013;-65
2023/02/02 14:11:56;;;;;;;10.27;4.07;;;9.20;88.10;;;;;;9157400;19;20011;-63
2023/02/02 14:15:02;;;;;;;;;;;9.20;88.20;;;;;;9168428;19;20014;-65
2023/02/02 14:18:06;;;;;;;17.17;3.53;;;9.20;88.20;;;;;;9170019;19;20340;-63
2023/02/02 14:21:12;;;;;;;18.92;5.00;;;9.20;88.00;;;;;;9167176;19;20698;-64
2023/02/02 14:24:44;;;;;;;15.50;4.65;;;9.20;88.10;;;;;;9166299;19;20475;-64
2023/02/02 14:27:59;;;;;;;22.48;5.32;;;9.20;88.20;;;;;;9168357;19;20025;-62
2023/02/02 14:31:33;;;;;;;23.65;5.45;;;9.20;88.20;;;;;;9167672;19;20019;-65
2023/02/02 14:34:40;;;;;;;11.30;4.38;;;9.30;88.30;;;;;;9161967;19;20015;-64
2023/02/02 14:37:51;;;;;;;12.27;4.50;;;9.30;88.20;;;;;;9162312;19;20045;-65
2023/02/02 14:41:06;;;;;;;7.95;4.40;;;9.30;88.30;;;;;;9163229;19;20010;-64
2023/02/02 14:44:09;;;;;;;12.57;4.27;;;9.30;88.30;;;;;;9166206;19;20365;-67
2023/02/02 14:47:43;;;;;;;12.20;4.20;;;9.30;88.30;;;;;;9165909;19;21123;-65
2023/02/02 14:50:50;;;;;;;9.48;4.05;;;9.30;88.40;;;;;;9165053;19;20015;-65
2023/02/02 14:53:58;;;;;;;11.40;3.80;;;9.30;88.30;;;;;;9169303;19;20039;-66
2023/02/02 14:57:22;;;;;;;6.60;3.83;;;9.30;88.30;;;;;;9173497;19;20037;-66
2023/02/02 15:00:32;;;;;;;9.05;4.22;;;9.30;88.30;;;;;;9177065;19;20017;-64
2023/02/02 15:03:46;;;;;;;8.52;4.30;;;9.30;88.40;;;;;;9177851;19;20352;-62
2023/02/02 15:06:53;;;;;;;12.10;4.45;;;9.30;88.40;;;;;;9172247;19;20014;-64
2023/02/02 15:09:57;;;;;;;9.68;4.07;;;9.30;88.40;;;;;;9168035;19;20041;-66
2023/02/02 15:13:08;;;;;;;12.50;4.65;;;9.30;88.40;;;;;;9173317;19;20011;-62
2023/02/02 15:16:21;;;;;;;15.18;4.57;;;9.30;88.40;;;;;;9169469;19;20014;-64
2023/02/02 15:19:35;;;;;;;13.15;4.00;;;9.30;88.40;;;;;;9170282;19;20021;-64
2023/02/02 15:22:44;;;;;;;9.88;4.28;;;9.30;88.40;;;;;;9176367;19;20481;-65
2023/02/02 15:25:56;;;;;;;9.45;4.78;;;9.30;88.40;;;;;;9171348;19;20006;-64
2023/02/02 15:29:07;;;;;;;12.32;4.60;;;9.20;88.40;;;;;;9171862;19;20022;-65
2023/02/02 15:32:19;;;;;;;14.55;5.10;;;9.20;88.40;;;;;;9169505;19;20010;-65
2023/02/02 15:35:27;;;;;;;10.45;4.72;;;9.20;88.40;;;;;;9169615;19;20033;-65
2023/02/02 15:38:36;;;;;;;16.65;5.93;;;9.30;88.50;;;;;;9178894;19;20021;-62
2023/02/02 15:41:45;;;;;;;13.30;4.95;;;9.20;88.50;;;;;;9181324;19;20017;-66
2023/02/02 15:44:52;;;;;;;16.58;5.93;;;9.20;88.50;;;;;;9181307;19;20380;-67
2023/02/02 15:47:57;;;;;;;13.43;5.30;;;9.20;88.50;;;;;;9181311;19;20490;-66
2023/02/02 15:51:08;;;;;;;16.00;5.72;;;9.20;88.50;;;;;;9181005;19;20482;-65
2023/02/02 15:54:23;;;;;;;15.98;5.78;;;9.20;88.60;;;;;;9179109;19;20022;-63
2023/02/02 15:57:32;;;;;;;11.85;5.13;;;9.20;88.60;;;;;;9177143;19;20014;-68
2023/02/02 16:00:38;;;;;;;16.58;5.05;;;9.20;88.60;;;;;;9175205;19;20018;-62
2023/02/02 16:03:50;;;;;;;12.68;4.72;;;9.10;88.50;;;;;;9173322;19;20018;-65
2023/02/02 16:06:55;;;;;;;14.45;5.43;;;9.10;88.60;;;;;;9168219;19;20070;-62
2023/02/02 16:10:06;;;;;;;9.00;4.40;;;9.10;88.60;;;;;;9160454;19;20014;-68
2023/02/02 16:13:23;;;;;;;10.45;4.55;;;9.10;88.60;;;;;;9167650;19;20029;-64
2023/02/02 16:16:32;;;;;;;12.93;4.60;;;9.20;88.70;;;;;;9165282;19;20018;-66
2023/02/02 16:19:37;;;;;;;14.70;4.47;;;9.10;88.70;;;;;;9167172;19;20023;-64
2023/02/02 16:22:44;;;;;;;7.93;4.07;;;9.10;88.70;;;;;;9167838;19;20015;-69
2023/02/02 16:25:53;;;;;;;11.45;4.60;;;9.10;88.70;;;;;;9173179;19;20638;-62
2023/02/02 16:28:59;;;;;;;8.35;5.28;;;9.10;88.70;;;;;;9174658;19;20014;-66
2023/02/02 16:32:06;;;;;;;9.52;3.95;;;9.10;88.70;;;;;;9174426;19;20015;-64
2023/02/02 16:35:32;;;;;;;6.60;3.88;;;9.10;89.40;;;;;;9178696;19;20010;-63
2023/02/02 16:38:38;;;;;;;8.10;4.40;;;9.10;88.90;;;;;;9180414;19;20102;-64
2023/02/02 16:41:47;;;;;;;14.25;4.20;;;9.10;88.80;;;;;;9180007;19;20018;-66
2023/02/02 16:44:52;;;;;;;10.57;4.22;;;9.00;88.70;;;;;;9172080;19;20051;-66
2023/02/02 16:48:25;;;;;;;8.77;4.22;;;9.00;88.70;;;;;;9174575;19;20592;-66
2023/02/02 16:51:30;;;;;;;7.15;4.18;;;9.00;88.80;;;;;;9172840;19;20470;-65